Time;durP1;ratioP1;P1;durP2;ratioP2;P2;SDS_P1;SDS_P2;PMS_P1;PMS_P2;Temp;Humidity;BMP_temperature;BMP_pressure;BME280_temperature;BME280_humidity;BME280_pressure;Samples;Min_cycle;Max_cycle;Signal;HPM_P1;HPM_P2
2020/12/28 00:02:19;;;;;;;3.20;1.17;;;;;;;6.08;100.00;93797.19;10529548;28;20024;-74
2020/12/28 00:07:20;;;;;;;2.08;1.23;;;;;;;6.11;100.00;93804.66;10530444;28;20109;-74
2020/12/28 00:12:20;;;;;;;0.90;0.60;;;;;;;6.12;100.00;93808.94;10529874;28;20016;-74
2020/12/28 00:17:21;;;;;;;2.03;0.33;;;;;;;6.14;100.00;93828.16;10529623;28;20044;-74
2020/12/28 00:22:21;;;;;;;11.65;5.78;;;;;;;6.12;100.00;93822.25;10529969;28;20374;-74
2020/12/28 00:27:21;;;;;;;21.13;10.27;;;;;;;5.91;100.00;93824.88;10542323;28;20190;-74
2020/12/28 00:32:22;;;;;;;21.20;9.83;;;;;;;5.71;100.00;93836.34;10519832;28;20020;-74
2020/12/28 00:37:22;;;;;;;21.65;9.85;;;;;;;5.64;100.00;93823.28;10501427;28;20035;-74
2020/12/28 00:42:23;;;;;;;19.77;9.98;;;;;;;5.58;100.00;93813.69;10517805;28;20051;-74
2020/12/28 00:47:24;;;;;;;18.13;7.30;;;;;;;5.55;100.00;93811.53;10483082;28;20029;-74
2020/12/28 00:52:24;;;;;;;11.82;7.13;;;;;;;5.57;100.00;93804.06;10501766;28;20446;-74
2020/12/28 00:57:25;;;;;;;12.93;6.47;;;;;;;5.60;100.00;93810.75;10484153;28;20032;-74
2020/12/28 01:02:25;;;;;;;15.80;6.73;;;;;;;5.55;100.00;93795.53;10500782;28;20282;-74
2020/12/28 01:07:26;;;;;;;10.60;5.63;;;;;;;5.59;100.00;93796.59;10501007;28;20817;-74
2020/12/28 01:12:26;;;;;;;10.70;5.23;;;;;;;5.58;100.00;93799.53;10482941;28;20114;-74
2020/12/28 01:17:26;;;;;;;7.87;4.37;;;;;;;5.59;100.00;93807.25;10500902;28;20055;-75
2020/12/28 01:22:27;;;;;;;8.67;4.23;;;;;;;5.54;100.00;93801.13;10500411;28;20290;-75
2020/12/28 01:27:27;;;;;;;10.07;3.73;;;;;;;5.53;100.00;93812.88;10501025;28;20641;-74
2020/12/28 01:32:27;;;;;;;7.57;3.33;;;;;;;5.74;100.00;93806.50;10499568;28;20757;-74
2020/12/28 01:37:28;;;;;;;11.10;5.37;;;;;;;5.73;100.00;93799.53;10494993;28;20027;-74
2020/12/28 01:42:28;;;;;;;9.95;4.28;;;;;;;5.77;100.00;93802.50;10494356;28;20024;-74
2020/12/28 01:47:28;;;;;;;6.07;3.77;;;;;;;5.65;100.00;93800.88;10493875;28;20024;-74
2020/12/28 01:52:29;;;;;;;11.00;4.43;;;;;;;5.58;100.00;93800.34;10493701;28;20082;-74
2020/12/28 01:57:30;;;;;;;11.00;4.97;;;;;;;5.45;100.00;93803.53;10493079;28;20358;-74
2020/12/28 02:02:32;;;;;;;10.73;5.35;;;;;;;5.31;100.00;93787.25;10493257;28;20480;-74
2020/12/28 02:07:37;;;;;;;9.00;4.55;;;;;;;5.24;100.00;93778.69;10474823;28;20048;-74
2020/12/28 02:12:38;;;;;;;6.07;3.72;;;;;;;5.23;100.00;93782.41;10492894;28;20024;-74
2020/12/28 02:17:39;;;;;;;8.13;4.15;;;;;;;5.30;100.00;93767.81;10492475;28;20036;-75
2020/12/28 02:22:43;;;;;;;12.95;4.10;;;;;;;5.34;100.00;93765.38;10491940;28;20036;-75
2020/12/28 02:27:43;;;;;;;10.45;5.13;;;;;;;5.39;100.00;93772.63;10492784;28;20028;-75
2020/12/28 02:32:44;;;;;;;7.88;4.07;;;;;;;5.16;100.00;93773.88;10491757;28;20024;-75
2020/12/28 02:37:44;;;;;;;9.20;4.13;;;;;;;5.23;100.00;93783.25;10491317;28;20030;-75
2020/12/28 02:42:44;;;;;;;9.40;4.60;;;;;;;5.26;100.00;93793.38;10490934;28;20780;-75
2020/12/28 02:47:45;;;;;;;9.67;4.57;;;;;;;5.20;100.00;93799.72;10490064;28;20278;-75
2020/12/28 02:52:45;;;;;;;11.75;6.13;;;;;;;5.04;100.00;93836.16;10473166;28;20024;-76
2020/12/28 02:57:46;;;;;;;11.87;6.43;;;;;;;5.16;100.00;93816.50;10491232;28;20032;-75
2020/12/28 03:02:46;;;;;;;17.10;8.55;;;;;;;5.16;100.00;93811.19;10490712;28;20028;-75
2020/12/28 03:07:47;;;;;;;20.20;9.10;;;;;;;5.17;100.00;93832.22;10490488;28;20028;-75
2020/12/28 03:12:47;;;;;;;19.30;9.07;;;;;;;5.22;100.00;93804.78;10490490;28;20711;-76
2020/12/28 03:17:47;;;;;;;21.20;10.38;;;;;;;5.00;100.00;93823.66;10490401;28;20098;-76
2020/12/28 03:22:48;;;;;;;22.50;10.13;;;;;;;4.94;100.00;93804.19;10489429;28;20039;-74
2020/12/28 03:27:48;;;;;;;22.77;11.10;;;;;;;5.02;100.00;93816.97;10489511;28;20811;-75
2020/12/28 03:32:49;;;;;;;21.10;10.15;;;;;;;4.92;100.00;93816.94;10489035;28;20020;-75
2020/12/28 03:37:49;;;;;;;20.87;9.73;;;;;;;4.99;100.00;93806.84;10488315;28;20048;-76
2020/12/28 03:42:49;;;;;;;17.13;9.70;;;;;;;5.12;100.00;93801.06;10488798;28;20033;-74
2020/12/28 03:47:50;;;;;;;19.63;9.00;;;;;;;5.11;100.00;93815.41;10488800;28;20032;-74
2020/12/28 03:52:50;;;;;;;17.87;8.63;;;;;;;5.12;100.00;93817.03;10488548;28;20078;-74
2020/12/28 03:57:50;;;;;;;19.33;9.80;;;;;;;5.07;100.00;93802.91;10469858;28;20029;-74
2020/12/28 04:02:51;;;;;;;18.90;9.40;;;;;;;4.99;100.00;93806.06;10488058;28;20211;-75
2020/12/28 04:07:51;;;;;;;21.40;9.45;;;;;;;5.00;100.00;93823.66;10488224;28;20079;-74
2020/12/28 04:12:51;;;;;;;21.70;9.80;;;;;;;4.89;100.00;93831.56;10500366;28;20012;-74
2020/12/28 04:17:52;;;;;;;15.90;8.00;;;;;;;5.02;100.00;93840.16;10529353;28;20391;-74
2020/12/28 04:22:52;;;;;;;21.93;8.83;;;;;;;4.84;100.00;93820.91;10567734;28;20039;-74
2020/12/28 04:27:53;;;;;;;25.93;8.83;;;;;;;4.77;100.00;93847.78;10537889;28;20032;-73
2020/12/28 04:32:53;;;;;;;19.17;9.23;;;;;;;4.81;100.00;93834.72;10524167;28;20059;-74
2020/12/28 04:37:53;;;;;;;20.52;9.60;;;;;;;4.86;100.00;93829.44;10528129;28;20016;-74
2020/12/28 04:42:55;;;;;;;17.03;8.97;;;;;;;4.72;100.00;93841.63;10527807;28;20085;-74
2020/12/28 04:47:56;;;;;;;19.35;9.63;;;;;;;4.71;100.00;93838.16;10528115;28;20518;-74
2020/12/28 04:52:58;;;;;;;19.40;9.82;;;;;;;4.68;100.00;93832.56;10529295;28;20093;-73
2020/12/28 04:57:59;;;;;;;15.52;8.25;;;;;;;4.75;100.00;93835.78;10510787;28;20053;-73
2020/12/28 05:03:00;;;;;;;17.60;8.30;;;;;;;4.70;100.00;93835.75;10527840;28;20048;-74
2020/12/28 05:08:04;;;;;;;18.80;9.20;;;;;;;4.68;100.00;93853.84;10528818;28;20107;-74
2020/12/28 05:13:12;;;;;;;19.52;8.13;;;;;;;4.56;100.00;93851.38;10507132;28;20450;-74
2020/12/28 05:18:15;;;;;;;21.25;9.30;;;;;;;4.44;100.00;93859.56;10494132;28;20049;-74
2020/12/28 05:23:17;;;;;;;22.15;9.90;;;;;;;4.44;100.00;93867.53;10511931;28;20039;-74
2020/12/28 05:28:21;;;;;;;27.13;9.95;;;;;;;4.44;100.00;93867.53;10498672;28;20032;-74
2020/12/28 05:33:21;;;;;;;21.55;10.32;;;;;;;4.45;100.00;93901.88;10493650;28;20025;-73
2020/12/28 05:38:24;;;;;;;21.98;10.73;;;;;;;4.32;100.00;93917.47;10493778;28;20021;-74
2020/12/28 05:43:28;;;;;;;20.15;10.82;;;;;;;4.49;100.00;93927.97;10493563;28;20034;-74
2020/12/28 05:48:34;;;;;;;20.17;10.77;;;;;;;4.66;100.00;93917.16;10493384;28;20025;-74
2020/12/28 05:53:41;;;;;;;22.17;10.55;;;;;;;4.81;100.00;93951.88;10493244;28;20079;-74
2020/12/28 05:58:43;;;;;;;23.48;12.02;;;;;;;4.94;100.00;93932.00;10493106;28;20035;-73
2020/12/28 06:03:45;;;;;;;19.13;9.38;;;;;;;5.03;100.00;93946.41;10492710;28;20036;-73
2020/12/28 06:08:46;;;;;;;19.98;10.60;;;;;;;5.15;100.00;93940.91;10492378;28;20103;-73
2020/12/28 06:13:46;;;;;;;19.23;9.37;;;;;;;5.09;100.00;93950.72;10492750;28;20035;-74
2020/12/28 06:18:56;;;;;;;19.50;9.27;;;;;;;5.10;100.00;93930.22;10522485;28;20808;-73
2020/12/28 06:23:57;;;;;;;18.05;9.75;;;;;;;5.18;100.00;93961.69;10533302;28;20028;-73
2020/12/28 06:29:07;;;;;;;17.15;8.38;;;;;;;4.99;100.00;93952.50;10533355;28;20024;-74
2020/12/28 06:34:17;;;;;;;19.77;8.30;;;;;;;5.10;100.00;93957.63;10533272;28;20019;-73
2020/12/28 06:39:17;;;;;;;18.55;9.32;;;;;;;5.14;100.00;93974.69;10529409;28;20037;-73
2020/12/28 06:44:26;;;;;;;18.50;8.80;;;;;;;5.15;100.00;93986.19;10499850;28;20079;-74
2020/12/28 06:49:26;;;;;;;18.92;9.00;;;;;;;5.32;100.00;93943.38;10532625;28;20107;-75
2020/12/28 06:54:26;;;;;;;15.30;8.13;;;;;;;5.54;100.00;93967.19;10531799;28;20475;-75
2020/12/28 06:59:27;;;;;;;20.90;8.63;;;;;;;5.72;100.00;93946.44;10515685;28;20265;-73
2020/12/28 07:04:32;;;;;;;19.10;8.87;;;;;;;5.86;100.00;93936.91;10489874;28;20488;-73
2020/12/28 07:09:33;;;;;;;18.85;8.48;;;;;;;6.01;100.00;93946.03;10501620;28;20454;-74
2020/12/28 07:14:35;;;;;;;15.30;8.57;;;;;;;6.12;100.00;93977.00;10513224;28;20074;-73
2020/12/28 07:19:36;;;;;;;20.25;10.40;;;;;;;6.28;100.00;93965.28;10530785;28;20048;-74
2020/12/28 07:24:36;;;;;;;16.37;8.60;;;;;;;6.58;100.00;93949.56;10492326;28;20036;-73
2020/12/28 07:29:37;;;;;;;13.63;7.43;;;;;;;6.75;100.00;93941.25;10504232;28;20090;-74
2020/12/28 07:34:38;;;;;;;35.38;16.50;;;;;;;7.06;100.00;93957.25;10488027;28;20279;-74
2020/12/28 07:39:38;;;;;;;28.57;13.87;;;;;;;7.23;100.00;93956.94;10488855;28;20028;-74
2020/12/28 07:44:41;;;;;;;20.40;10.23;;;;;;;7.27;100.00;93958.81;10470140;28;20036;-74
2020/12/28 07:49:44;;;;;;;17.25;9.30;;;;;;;7.18;100.00;93987.16;10488020;28;20498;-74
2020/12/28 07:54:51;;;;;;;26.00;10.27;;;;;;;7.20;100.00;93971.66;10487398;28;20023;-73
2020/12/28 08:00:03;;;;;;;20.83;8.77;;;;;;;7.55;100.00;93969.97;10488052;28;20057;-74
2020/12/28 08:05:04;;;;;;;12.45;7.13;;;;;;;7.78;100.00;93960.50;10502149;28;20035;-74
2020/12/28 08:10:10;;;;;;;16.13;8.05;;;;;;;8.38;100.00;93943.56;10529353;28;20042;-74
2020/12/28 08:15:11;;;;;;;11.85;6.43;;;;;;;8.87;100.00;93929.28;10516731;28;20475;-74
2020/12/28 08:20:12;;;;;;;12.83;6.97;;;;;;;8.71;100.00;93933.19;10529454;28;20052;-74
2020/12/28 08:25:13;;;;;;;17.67;8.25;;;;;;;9.03;100.00;93924.59;10529189;28;20784;-76
2020/12/28 08:30:13;;;;;;;6.75;3.47;;;;;;;9.60;100.00;93901.69;10520562;28;20040;-75
2020/12/28 08:35:13;;;;;;;7.43;3.88;;;;;;;10.37;100.00;93909.53;10502749;28;20029;-75
2020/12/28 08:40:20;;;;;;;5.55;3.55;;;;;;;11.11;100.00;93873.91;10487391;28;20109;-74
2020/12/28 08:45:23;;;;;;;5.97;3.03;;;;;;;11.40;100.00;93888.97;10489744;28;20032;-75
2020/12/28 08:50:25;;;;;;;8.88;5.45;;;;;;;11.40;100.00;93894.34;10496434;28;20395;-75
2020/12/28 08:55:25;;;;;;;11.15;4.90;;;;;;;11.44;100.00;93878.38;10505252;28;20115;-75
2020/12/28 09:00:27;;;;;;;7.22;3.97;;;;;;;11.97;100.00;93877.06;10511698;28;20036;-76
2020/12/28 09:05:29;;;;;;;10.10;4.95;;;;;;;12.45;100.00;93870.34;10502635;28;20024;-75
2020/12/28 09:10:29;;;;;;;12.07;5.72;;;;;;;13.08;100.00;93863.09;10494626;28;20032;-76
2020/12/28 09:15:30;;;;;;;6.67;4.10;;;;;;;13.79;94.06;93858.78;10494759;28;20031;-76
2020/12/28 09:20:30;;;;;;;9.17;5.57;;;;;;;14.17;94.79;93867.06;10493872;28;20044;-76
2020/12/28 09:25:30;;;;;;;7.23;3.40;;;;;;;14.35;86.94;93873.28;10494138;28;20173;-76
2020/12/28 09:30:31;;;;;;;8.70;3.50;;;;;;;14.52;73.92;93883.28;10493850;28;20029;-76
2020/12/28 09:35:31;;;;;;;7.17;4.17;;;;;;;14.62;77.50;93881.38;10493414;28;20017;-76
2020/12/28 09:40:31;;;;;;;8.50;4.83;;;;;;;14.24;93.33;93872.00;10493662;28;20637;-76
2020/12/28 09:45:37;;;;;;;6.73;3.67;;;;;;;14.68;85.07;93848.47;10493619;28;20563;-75
2020/12/28 09:50:38;;;;;;;5.95;3.65;;;;;;;15.31;78.40;93823.63;10492781;28;20270;-75
2020/12/28 09:55:38;;;;;;;5.82;2.60;;;;;;;15.73;60.00;93839.97;10492706;28;20024;-76
2020/12/28 10:00:39;;;;;;;1.07;0.73;;;;;;;18.24;38.45;93827.19;10491979;28;20843;-76
2020/12/28 10:05:39;;;;;;;5.90;0.60;;;;;;;18.21;33.30;93805.31;10491878;28;20020;-76
2020/12/28 10:10:39;;;;;;;7.60;0.80;;;;;;;16.88;37.39;93789.19;10492127;28;20107;-76
2020/12/28 10:15:40;;;;;;;1.30;0.50;;;;;;;17.98;34.99;93767.00;10492343;28;20289;-76
2020/12/28 10:20:44;;;;;;;1.63;0.30;;;;;;;21.37;30.43;93761.84;10491145;28;20306;-75
2020/12/28 10:25:44;;;;;;;1.58;0.32;;;;;;;23.29;28.10;93749.44;10491559;28;20020;-77
2020/12/28 10:30:44;;;;;;;1.48;0.30;;;;;;;22.10;29.00;93739.88;10491538;28;20472;-77
2020/12/28 10:35:45;;;;;;;4.83;0.60;;;;;;;24.96;25.81;93724.44;10491191;28;20032;-76
2020/12/28 10:40:45;;;;;;;2.13;0.73;;;;;;;23.84;29.95;93732.19;10491247;28;20055;-76
2020/12/28 10:45:45;;;;;;;2.43;1.30;;;;;;;26.94;28.19;93713.09;10490516;28;20149;-75
2020/12/28 10:50:46;;;;;;;3.27;1.23;;;;;;;29.57;25.22;93712.25;10483640;28;20756;-77
2020/12/28 10:55:47;;;;;;;3.20;1.52;;;;;;;30.64;23.20;93705.16;10502246;28;20376;-76
2020/12/28 11:00:51;;;;;;;3.27;0.80;;;;;;;26.76;24.70;93707.69;10510551;28;20040;-76
2020/12/28 11:05:52;;;;;;;4.55;1.40;;;;;;;22.27;29.72;93713.91;10498770;28;20033;-76
2020/12/28 11:10:52;;;;;;;7.37;2.60;;;;;;;23.32;30.55;93704.03;10530779;28;20406;-76
2020/12/28 11:15:52;;;;;;;4.90;1.40;;;;;;;24.76;28.39;93695.78;10531692;28;20028;-76
2020/12/28 11:20:53;;;;;;;15.63;2.20;;;;;;;26.46;26.78;93685.38;10531037;28;20048;-76
2020/12/28 11:25:53;;;;;;;2.40;1.47;;;;;;;24.90;26.68;93682.06;10530805;28;20032;-76
2020/12/28 11:30:53;;;;;;;11.70;2.03;;;;;;;25.56;26.77;93680.91;10531194;28;20036;-75
2020/12/28 11:35:54;;;;;;;4.93;2.43;;;;;;;24.71;27.36;93686.75;10515877;28;20020;-75
2020/12/28 11:40:54;;;;;;;4.57;2.20;;;;;;;23.71;28.57;93687.84;10488818;28;20269;-75
2020/12/28 11:45:55;;;;;;;8.23;2.33;;;;;;;21.12;31.38;93713.03;10488700;28;20676;-76
2020/12/28 11:50:55;;;;;;;5.47;2.05;;;;;;;18.89;34.98;93724.75;10471000;28;20040;-77
2020/12/28 11:56:11;;;;;;;4.63;1.30;;;;;;;17.73;35.14;93745.25;10469655;28;20047;-76
2020/12/28 12:01:18;;;;;;;3.55;0.90;;;;;;;16.77;35.91;93733.69;10487868;28;20035;-76
2020/12/28 12:06:21;;;;;;;5.50;2.20;;;;;;;15.96;38.54;93722.38;10487716;28;20037;-75
2020/12/28 12:11:21;;;;;;;4.97;1.45;;;;;;;15.10;39.03;93707.19;10499079;28;20472;-76
2020/12/28 12:16:26;;;;;;;2.53;1.00;;;;;;;14.50;39.96;93704.38;10503261;28;20024;-76
2020/12/28 12:21:26;;;;;;;11.68;3.88;;;;;;;14.00;39.35;93704.97;10487072;28;20056;-76
2020/12/28 12:26:27;;;;;;;3.13;0.60;;;;;;;13.34;38.99;93705.91;10487343;28;20496;-79
2020/12/28 12:31:28;;;;;;;2.75;1.42;;;;;;;13.11;41.71;93697.91;10499298;28;20028;-76
2020/12/28 12:36:28;;;;;;;2.97;0.73;;;;;;;12.86;40.79;93699.44;10527534;28;20774;-76
2020/12/28 12:41:29;;;;;;;4.30;0.95;;;;;;;12.77;42.79;93699.41;10515486;28;20476;-76
2020/12/28 12:46:29;;;;;;;2.60;0.90;;;;;;;12.67;39.81;93683.53;10507994;28;20302;-77
2020/12/28 12:51:29;;;;;;;0.85;0.63;;;;;;;12.71;40.96;93708.75;10502893;28;20089;-76
2020/12/28 12:56:30;;;;;;;2.22;0.60;;;;;;;12.58;43.44;93715.81;10527896;28;20035;-76
2020/12/28 13:01:30;;;;;;;0.70;0.30;;;;;;;12.42;40.95;93698.47;10521902;28;20024;-76
2020/12/28 13:06:30;;;;;;;1.67;0.90;;;;;;;12.34;43.94;93728.88;10528517;28;20097;-75
2020/12/28 13:11:31;;;;;;;0.93;0.50;;;;;;;12.31;41.28;93724.91;10527491;28;20030;-76
2020/12/28 13:16:31;;;;;;;2.13;0.70;;;;;;;12.02;46.15;93734.22;10529290;28;20032;-75
2020/12/28 13:21:31;;;;;;;7.77;1.90;;;;;;;12.06;44.74;93726.34;10528540;28;20106;-76
2020/12/28 13:26:32;;;;;;;3.33;0.90;;;;;;;11.73;43.79;93721.94;10528198;28;20483;-76
2020/12/28 13:31:32;;;;;;;0.93;0.30;;;;;;;11.65;41.57;93729.97;10528936;28;20270;-76
2020/12/28 13:36:37;;;;;;;0.30;0.30;;;;;;;11.60;43.01;93730.88;10520623;28;20024;-76
2020/12/28 13:41:38;;;;;;;1.30;0.40;;;;;;;11.50;42.24;93753.44;10492933;28;20028;-76
2020/12/28 13:46:38;;;;;;;0.55;0.50;;;;;;;11.42;44.88;93746.88;10508930;28;20503;-76
2020/12/28 13:51:39;;;;;;;0.40;0.30;;;;;;;11.41;43.43;93761.44;10493301;28;20020;-75
2020/12/28 13:56:39;;;;;;;0.93;0.57;;;;;;;11.39;43.20;93750.16;10492990;28;20027;-77
2020/12/28 14:01:43;;;;;;;3.03;0.60;;;;;;;11.32;44.07;93770.50;10474774;28;20031;-77
2020/12/28 14:06:44;;;;;;;1.20;0.43;;;;;;;11.05;46.00;93772.13;10492871;28;20032;-76
2020/12/28 14:11:47;;;;;;;4.60;0.60;;;;;;;10.90;47.02;93778.59;10492251;28;20020;-76
2020/12/28 14:16:47;;;;;;;1.80;0.40;;;;;;;10.75;48.42;93767.03;10492325;28;20317;-75
2020/12/28 14:21:48;;;;;;;0.73;0.43;;;;;;;10.65;48.70;93780.66;10510553;28;20016;-75
2020/12/28 14:26:48;;;;;;;0.87;0.43;;;;;;;10.54;50.50;93788.09;10514024;28;20019;-76
2020/12/28 14:31:49;;;;;;;1.00;0.60;;;;;;;10.54;51.37;93777.38;10517723;28;20505;-76
2020/12/28 14:36:51;;;;;;;4.07;0.60;;;;;;;10.52;53.13;93789.50;10492202;28;20764;-76
2020/12/28 14:41:52;;;;;;;1.88;0.98;;;;;;;10.48;52.78;93777.75;10513488;28;20032;-75
2020/12/28 14:46:52;;;;;;;1.37;0.77;;;;;;;10.49;53.72;93779.34;10507307;28;20035;-76
2020/12/28 14:51:52;;;;;;;4.35;0.65;;;;;;;10.42;55.86;93793.97;10504414;28;20029;-75
2020/12/28 14:56:53;;;;;;;1.10;0.50;;;;;;;10.29;56.80;93804.66;10493603;28;20165;-77
2020/12/28 15:01:53;;;;;;;0.90;0.70;;;;;;;10.24;55.89;93789.41;10530924;28;20293;-75
2020/12/28 15:06:53;;;;;;;3.20;0.80;;;;;;;10.21;55.79;93760.44;10506520;28;20036;-75
2020/12/28 15:11:54;;;;;;;1.80;0.70;;;;;;;10.21;53.96;93739.78;10491852;28;20063;-76
2020/12/28 15:16:54;;;;;;;1.43;0.60;;;;;;;10.27;52.54;93748.56;10531720;28;20032;-76
2020/12/28 15:21:54;;;;;;;1.37;0.70;;;;;;;10.26;54.97;93765.75;10531027;28;20027;-75
2020/12/28 15:26:55;;;;;;;4.03;0.63;;;;;;;10.20;55.73;93753.47;10530531;28;20039;-76
2020/12/28 15:31:55;;;;;;;4.55;1.33;;;;;;;10.05;60.43;93758.03;10530503;28;20085;-76
2020/12/28 15:36:55;;;;;;;4.53;1.20;;;;;;;9.87;63.21;93758.88;10530667;28;20035;-76
2020/12/28 15:41:56;;;;;;;1.63;1.10;;;;;;;9.80;59.62;93755.75;10523209;28;20029;-75
2020/12/28 15:46:57;;;;;;;2.40;0.60;;;;;;;9.90;56.11;93742.16;10487638;28;20028;-75
2020/12/28 15:51:58;;;;;;;0.85;0.55;;;;;;;9.93;55.39;93720.09;10491316;28;20032;-76
2020/12/28 15:56:58;;;;;;;1.65;0.45;;;;;;;10.37;47.18;93734.19;10489195;28;20024;-76
2020/12/28 16:01:58;;;;;;;3.27;1.13;;;;;;;10.39;49.59;93754.25;10510091;28;20031;-76
2020/12/28 16:06:59;;;;;;;1.73;0.80;;;;;;;10.33;50.71;93757.31;10488679;28;20274;-76
2020/12/28 16:11:59;;;;;;;1.90;1.23;;;;;;;10.25;51.54;93737.28;10490744;28;20728;-76
2020/12/28 16:17:06;;;;;;;1.17;1.05;;;;;;;10.14;53.40;93739.34;10509923;28;20024;-75
2020/12/28 16:22:06;;;;;;;3.85;1.25;;;;;;;9.98;53.70;93756.81;10529531;28;20032;-75
2020/12/28 16:27:07;;;;;;;2.72;1.13;;;;;;;9.93;53.40;93792.56;10529287;28;20041;-75
2020/12/28 16:32:08;;;;;;;1.92;1.00;;;;;;;10.12;51.08;93771.06;10528895;28;20080;-75
2020/12/28 16:37:09;;;;;;;1.27;0.52;;;;;;;10.56;45.17;93760.94;10529092;28;20380;-76
2020/12/28 16:42:09;;;;;;;1.15;0.68;;;;;;;10.72;44.85;93781.06;10510212;28;20032;-75
2020/12/28 16:47:10;;;;;;;1.42;0.77;;;;;;;10.65;44.48;93779.88;10528387;28;20035;-76
2020/12/28 16:52:10;;;;;;;2.13;0.50;;;;;;;10.75;42.80;93744.75;10527199;28;20024;-75
2020/12/28 16:57:11;;;;;;;1.58;0.60;;;;;;;10.64;43.82;93741.44;10487212;28;20036;-76
2020/12/28 17:02:11;;;;;;;1.60;0.90;;;;;;;10.56;44.50;93750.19;10486226;28;20032;-76
2020/12/28 17:07:12;;;;;;;1.53;0.70;;;;;;;10.36;44.04;93762.91;10498291;28;20028;-76
2020/12/28 17:12:12;;;;;;;1.20;0.73;;;;;;;10.35;45.55;93750.56;10518726;28;20032;-76
2020/12/28 17:17:12;;;;;;;1.20;0.67;;;;;;;10.43;45.03;93752.56;10517615;28;20423;-76
2020/12/28 17:22:13;;;;;;;0.73;0.43;;;;;;;10.59;43.59;93752.28;10536583;28;20541;-76
2020/12/28 17:27:14;;;;;;;1.00;0.70;;;;;;;10.74;42.55;93748.53;10536116;28;20070;-76
2020/12/28 17:32:15;;;;;;;2.70;0.80;;;;;;;10.74;44.08;93730.53;10494787;28;20116;-76
2020/12/28 17:37:16;;;;;;;1.42;0.88;;;;;;;10.52;45.90;93784.13;10493507;28;20064;-76
2020/12/28 17:42:16;;;;;;;3.60;0.77;;;;;;;10.48;45.80;93772.38;10493475;28;20115;-76
2020/12/28 17:47:17;;;;;;;1.33;0.90;;;;;;;10.38;46.86;93771.47;10492834;28;20348;-76
2020/12/28 17:52:17;;;;;;;1.65;1.10;;;;;;;10.28;47.83;93779.66;10492411;28;20090;-76
2020/12/28 17:57:18;;;;;;;3.80;1.77;;;;;;;10.03;51.28;93783.56;10492822;28;20028;-76
2020/12/28 18:02:18;;;;;;;2.42;1.38;;;;;;;10.21;47.20;93792.69;10492384;28;20089;-76
2020/12/28 18:07:19;;;;;;;0.97;0.80;;;;;;;10.44;47.38;93753.38;10492511;28;20029;-76
2020/12/28 18:12:19;;;;;;;0.98;0.88;;;;;;;10.53;47.11;93745.44;10492296;28;20290;-76
2020/12/28 18:17:38;;;;;;;1.37;0.83;;;;;;;10.55;46.52;93713.69;10473565;28;20056;-76
2020/12/28 18:22:38;;;;;;;1.65;1.30;;;;;;;10.53;46.57;93713.19;10505591;28;20514;-75
2020/12/28 18:27:39;;;;;;;1.83;1.20;;;;;;;10.55;47.90;93697.59;10532441;28;20039;-75
2020/12/28 18:32:39;;;;;;;2.00;1.70;;;;;;;10.51;47.21;93710.81;10527844;28;20105;-75
2020/12/28 18:37:39;;;;;;;3.47;1.33;;;;;;;10.45;47.79;93678.94;10531780;28;20038;-75
2020/12/28 18:42:40;;;;;;;1.43;1.33;;;;;;;10.52;47.90;93682.03;10529488;28;20378;-75
2020/12/28 18:47:40;;;;;;;1.70;1.37;;;;;;;10.52;47.53;93665.91;10530637;28;20290;-75
2020/12/28 18:52:40;;;;;;;1.73;1.47;;;;;;;10.49;47.99;93658.47;10531090;28;20028;-75
2020/12/28 18:57:42;;;;;;;3.50;1.50;;;;;;;10.49;47.46;93655.78;10516596;28;20369;-76
2020/12/28 19:02:42;;;;;;;3.92;2.72;;;;;;;10.46;48.44;93648.31;10511720;28;20111;-75
2020/12/28 19:07:43;;;;;;;7.03;1.70;;;;;;;10.48;47.65;93664.91;10497524;28;20032;-76
2020/12/28 19:12:43;;;;;;;2.90;1.70;;;;;;;10.42;49.69;93646.25;10509929;28;20036;-75
2020/12/28 19:17:44;;;;;;;2.33;1.50;;;;;;;10.45;50.22;93662.84;10489726;28;20321;-75
2020/12/28 19:22:45;;;;;;;2.40;1.40;;;;;;;10.45;48.46;93685.09;10471878;28;20063;-75
2020/12/28 19:27:46;;;;;;;3.58;1.17;;;;;;;10.54;47.33;93669.13;10501607;28;20036;-75
2020/12/28 19:32:47;;;;;;;4.22;2.38;;;;;;;10.62;49.49;93679.16;10512527;28;20130;-76
2020/12/28 19:37:47;;;;;;;5.70;2.37;;;;;;;10.50;49.09;93684.25;10530233;28;20030;-76
2020/12/28 19:42:48;;;;;;;6.33;2.27;;;;;;;10.41;49.10;93684.94;10512099;28;20274;-76
2020/12/28 19:47:48;;;;;;;0.73;0.70;;;;;;;10.60;45.74;93687.53;10497256;28;20081;-76
2020/12/28 19:52:48;;;;;;;0.87;0.77;;;;;;;10.77;45.94;93654.66;10494562;28;20020;-76
2020/12/28 19:57:49;;;;;;;1.67;1.20;;;;;;;10.72;45.93;93640.53;10488356;28;20266;-75
2020/12/28 20:02:50;;;;;;;1.50;1.10;;;;;;;10.71;46.29;93623.59;10506017;28;20042;-76
2020/12/28 20:07:50;;;;;;;1.30;1.20;;;;;;;10.57;46.32;93606.72;10522182;28;20039;-76
2020/12/28 20:12:51;;;;;;;1.17;0.93;;;;;;;10.57;46.58;93587.91;10527064;28;20027;-75
2020/12/28 20:17:51;;;;;;;2.97;0.98;;;;;;;10.48;47.19;93593.22;10526775;28;20450;-77
2020/12/28 20:22:52;;;;;;;7.00;1.10;;;;;;;10.47;47.03;93615.00;10498822;28;20788;-75
2020/12/28 20:27:53;;;;;;;2.03;1.40;;;;;;;10.46;48.03;93602.66;10523687;28;20286;-74
2020/12/28 20:32:58;;;;;;;0.98;0.60;;;;;;;10.58;46.65;93587.59;10524591;28;20020;-74
2020/12/28 20:37:58;;;;;;;1.75;1.25;;;;;;;10.54;47.41;93575.09;10522361;28;20024;-75
2020/12/28 20:43:06;;;;;;;1.58;1.10;;;;;;;10.50;48.45;93569.50;10527135;28;20495;-75
2020/12/28 20:48:09;;;;;;;3.37;1.10;;;;;;;10.44;48.65;93581.47;10518866;28;20028;-75
2020/12/28 20:53:11;;;;;;;2.22;1.27;;;;;;;10.32;49.33;93598.06;10492032;28;20103;-76
2020/12/28 20:58:15;;;;;;;1.42;1.15;;;;;;;10.40;49.71;93569.75;10471796;28;20024;-75
2020/12/28 21:03:17;;;;;;;2.60;1.10;;;;;;;10.32;49.87;93598.06;10508676;28;20016;-76
2020/12/28 21:08:17;;;;;;;4.47;1.10;;;;;;;10.26;50.82;93573.19;10516590;28;20024;-76
2020/12/28 21:13:21;;;;;;;2.08;1.08;;;;;;;10.15;52.19;93595.97;10527371;28;20020;-76
2020/12/28 21:18:24;;;;;;;3.10;1.40;;;;;;;10.03;52.57;93588.44;10508092;28;20101;-76
2020/12/28 21:23:24;;;;;;;2.55;1.27;;;;;;;10.01;52.12;93574.50;10510379;28;20040;-76
2020/12/28 21:28:25;;;;;;;5.87;2.10;;;;;;;9.82;53.91;93574.56;10539817;28;20442;-76
2020/12/28 21:33:25;;;;;;;4.27;1.20;;;;;;;9.74;52.97;93576.06;10532416;28;20274;-77
2020/12/28 21:38:25;;;;;;;2.45;1.15;;;;;;;10.03;53.69;93603.72;10515243;28;20684;-75
2020/12/28 21:43:27;;;;;;;1.67;1.07;;;;;;;9.93;55.01;93577.88;10531893;28;20027;-76
2020/12/28 21:48:27;;;;;;;4.10;1.73;;;;;;;9.82;56.61;93601.41;10510511;28;20290;-75
2020/12/28 21:53:28;;;;;;;6.50;1.60;;;;;;;9.84;55.13;93588.50;10503095;28;20032;-75
2020/12/28 21:58:28;;;;;;;2.47;1.60;;;;;;;9.57;58.99;93624.09;10503302;28;20024;-75
2020/12/28 22:03:29;;;;;;;2.97;1.70;;;;;;;9.54;59.90;93630.06;10520926;28;20399;-78
2020/12/28 22:08:30;;;;;;;6.30;1.50;;;;;;;9.54;60.78;93608.59;10491867;28;20035;-77
2020/12/28 22:13:31;;;;;;;3.27;1.30;;;;;;;9.30;63.92;93640.91;10491267;28;20402;-78
2020/12/28 22:18:31;;;;;;;2.30;1.45;;;;;;;9.37;65.66;93638.66;10478477;28;20159;-78
2020/12/28 22:23:32;;;;;;;3.60;1.70;;;;;;;9.28;67.96;93619.75;10504815;28;20032;-78
2020/12/28 22:28:34;;;;;;;4.93;2.47;;;;;;;9.20;68.61;93615.84;10530357;28;20093;-77
2020/12/28 22:33:34;;;;;;;3.03;1.58;;;;;;;9.22;66.41;93621.72;10534344;28;20028;-79
2020/12/28 22:38:35;;;;;;;5.97;2.97;;;;;;;9.18;67.41;93601.13;10533929;28;20032;-78
2020/12/28 22:43:35;;;;;;;5.40;2.17;;;;;;;9.09;68.17;93616.31;10533703;28;20064;-79
2020/12/28 22:48:36;;;;;;;3.33;2.17;;;;;;;8.87;72.51;93623.84;10533556;28;20097;-78
2020/12/28 22:53:37;;;;;;;4.15;2.03;;;;;;;8.78;73.95;93611.38;10531300;28;20055;-78
2020/12/28 22:58:37;;;;;;;3.38;2.15;;;;;;;8.77;73.24;93623.97;10506128;28;20036;-78
2020/12/28 23:03:38;;;;;;;5.60;2.73;;;;;;;8.53;81.13;93607.97;10491155;28;20036;-77
2020/12/28 23:08:38;;;;;;;4.93;2.13;;;;;;;8.46;82.29;93602.16;10490683;28;20032;-77
2020/12/28 23:13:38;;;;;;;6.30;2.38;;;;;;;8.30;84.49;93604.19;10490658;28;20024;-77